Time;durP1;ratioP1;P1;durP2;ratioP2;P2;SDS_P1;SDS_P2;PMS_P1;PMS_P2;Temp;Humidity;BMP_temperature;BMP_pressure;BME280_temperature;BME280_humidity;BME280_pressure;Samples;Min_cycle;Max_cycle;Signal;HPM_P1;HPM_P2
2022/06/23 00:01:54;;;;;;;13.90;5.05;;;;;;;;;;5066038;28;20024;-57
2022/06/23 00:04:32;;;;;;;16.23;4.93;;;;;;;;;;5060933;28;20024;-58
2022/06/23 00:07:02;;;;;;;18.65;5.47;;;;;;;;;;5063580;28;20032;-58
2022/06/23 00:09:45;;;;;;;16.90;5.32;;;;;;;;;;5066191;28;20028;-59
2022/06/23 00:12:19;;;;;;;15.48;5.05;;;;;;;;;;5064670;28;20037;-59
2022/06/23 00:15:19;;;;;;;18.90;5.65;;;;;;;;;;5068005;28;20086;-59
2022/06/23 00:17:59;;;;;;;17.13;5.07;;;;;;;;;;5042125;28;20127;-60
2022/06/23 00:20:27;;;;;;;;;;;;;;;;;;5067653;28;20025;-59
2022/06/23 00:22:58;;;;;;;17.60;5.22;;;;;;;;;;5059556;28;19916;-60
2022/06/23 00:25:54;;;;;;;14.35;4.68;;;;;;;;;;5065294;28;20020;-59
2022/06/23 00:28:48;;;;;;;21.85;5.53;;;;;;;;;;5066278;28;20488;-58
2022/06/23 00:31:35;;;;;;;18.17;5.22;;;;;;;;;;5061417;28;20079;-60
2022/06/23 00:34:16;;;;;;;12.95;5.32;;;;;;;;;;5070139;28;20047;-60
2022/06/23 00:36:48;;;;;;;13.90;5.20;;;;;;;;;;5068783;28;20035;-60
2022/06/23 00:39:40;;;;;;;16.58;5.60;;;;;;;;;;5070065;28;20143;-59
2022/06/23 00:42:21;;;;;;;13.13;5.28;;;;;;;;;;5061613;28;20282;-59
2022/06/23 00:45:13;;;;;;;16.58;5.57;;;;;;;;;;5065323;28;20017;-59
2022/06/23 00:48:06;;;;;;;14.18;5.32;;;;;;;;;;5024457;28;20513;-59
2022/06/23 00:50:49;;;;;;;16.00;5.50;;;;;;;;;;5066581;28;20135;-60
2022/06/23 00:53:33;;;;;;;13.40;5.30;;;;;;;;;;5068318;28;20040;-59
2022/06/23 00:56:07;;;;;;;14.55;5.03;;;;;;;;;;5061455;28;20028;-57
2022/06/23 00:58:35;;;;;;;16.83;5.20;;;;;;;;;;5062949;28;20120;-59
2022/06/23 01:01:13;;;;;;;14.32;5.05;;;;;;;;;;5066886;28;20056;-58
2022/06/23 01:04:07;;;;;;;14.57;5.50;;;;;;;;;;5062945;28;20150;-58
2022/06/23 01:06:41;;;;;;;17.08;5.68;;;;;;;;;;5062357;28;20245;-58
2022/06/23 01:09:25;;;;;;;13.45;5.35;;;;;;;;;;5066827;28;20043;-58
2022/06/23 01:12:20;;;;;;;16.65;5.60;;;;;;;;;;5062710;28;20392;-58
2022/06/23 01:14:59;;;;;;;14.55;5.10;;;;;;;;;;5067419;28;20162;-59
2022/06/23 01:17:31;;;;;;;15.60;5.22;;;;;;;;;;5066868;28;20644;-58
2022/06/23 01:20:08;;;;;;;16.70;6.47;;;;;;;;;;5066496;28;20515;-58
2022/06/23 01:22:34;;;;;;;12.43;5.28;;;;;;;;;;5067633;28;20025;-58
2022/06/23 01:25:24;;;;;;;12.70;5.57;;;;;;;;;;5070363;28;20370;-59
2022/06/23 01:27:58;;;;;;;15.68;5.30;;;;;;;;;;5070241;28;20043;-59
2022/06/23 01:30:27;;;;;;;16.75;5.53;;;;;;;;;;5064587;28;20020;-59
2022/06/23 01:33:02;;;;;;;;;;;;;;;;;;5070669;28;20047;-59
2022/06/23 01:35:34;;;;;;;10.85;5.35;;;;;;;;;;5062553;28;19924;-58
2022/06/23 01:38:10;;;;;;;9.63;5.03;;;;;;;;;;5074885;28;20036;-58
2022/06/23 01:40:46;;;;;;;11.18;5.20;;;;;;;;;;5070029;28;20421;-57
2022/06/23 01:43:20;;;;;;;14.25;5.75;;;;;;;;;;5061496;28;20396;-59
2022/06/23 01:45:57;;;;;;;17.67;5.45;;;;;;;;;;5064149;28;20078;-62
2022/06/23 01:49:01;;;;;;;18.67;6.05;;;;;;;;;;5064040;28;20487;-58
2022/06/23 01:51:26;;;;;;;22.23;5.93;;;;;;;;;;5051727;28;20040;-58
2022/06/23 01:54:14;;;;;;;11.13;5.43;;;;;;;;;;5048723;28;20032;-59
2022/06/23 01:56:45;;;;;;;15.18;5.57;;;;;;;;;;5045570;28;20048;-59
2022/06/23 01:59:23;;;;;;;15.95;5.90;;;;;;;;;;5062353;28;20020;-58
2022/06/23 02:02:10;;;;;;;18.38;5.85;;;;;;;;;;5060017;28;20036;-58
2022/06/23 02:04:52;;;;;;;23.38;6.40;;;;;;;;;;5061232;28;20468;-58
2022/06/23 02:07:21;;;;;;;17.17;4.85;;;;;;;;;;5059442;28;20384;-60
2022/06/23 02:09:54;;;;;;;;;;;;;;;;;;5064763;28;20043;-59
2022/06/23 02:12:46;;;;;;;15.30;5.15;;;;;;;;;;5072387;28;20006;-59
2022/06/23 02:15:47;;;;;;;13.40;5.22;;;;;;;;;;5072029;28;20037;-59
2022/06/23 02:18:25;;;;;;;16.98;5.82;;;;;;;;;;5066583;28;20048;-58
2022/06/23 02:21:12;;;;;;;13.63;5.45;;;;;;;;;;5067194;28;20017;-58
2022/06/23 02:23:45;;;;;;;13.77;5.28;;;;;;;;;;5068668;28;20510;-59
2022/06/23 02:26:16;;;;;;;18.13;5.68;;;;;;;;;;5073248;28;20085;-60
2022/06/23 02:28:55;;;;;;;16.92;5.10;;;;;;;;;;5074023;28;20039;-58
2022/06/23 02:31:41;;;;;;;16.58;5.03;;;;;;;;;;5067609;28;20059;-59
2022/06/23 02:34:30;;;;;;;22.05;5.78;;;;;;;;;;5069455;28;20488;-60
2022/06/23 02:37:23;;;;;;;14.17;5.10;;;;;;;;;;5069552;28;20036;-59
2022/06/23 02:39:53;;;;;;;16.55;5.53;;;;;;;;;;5069254;28;20059;-58
2022/06/23 02:42:27;;;;;;;13.15;5.55;;;;;;;;;;5063972;28;20052;-59
2022/06/23 02:45:10;;;;;;;17.25;6.25;;;;;;;;;;5071593;28;20028;-59
2022/06/23 02:48:06;;;;;;;20.80;5.13;;;;;;;;;;5073975;28;20024;-58
2022/06/23 02:51:08;;;;;;;14.40;5.32;;;;;;;;;;5070557;28;20029;-59
2022/06/23 02:54:01;;;;;;;13.85;5.68;;;;;;;;;;5072893;28;20401;-58
2022/06/23 02:56:26;;;;;;;13.77;5.72;;;;;;;;;;5068308;28;20029;-58
2022/06/23 02:59:11;;;;;;;15.68;5.43;;;;;;;;;;5064944;28;20178;-59
2022/06/23 03:01:44;;;;;;;17.27;6.40;;;;;;;;;;5062736;28;20487;-59
2022/06/23 03:04:23;;;;;;;15.73;5.57;;;;;;;;;;5066686;28;20075;-59
2022/06/23 03:07:21;;;;;;;13.63;5.68;;;;;;;;;;5068853;28;20103;-58
2022/06/23 03:09:59;;;;;;;13.55;6.00;;;;;;;;;;5067026;28;20032;-58
2022/06/23 03:12:37;;;;;;;14.02;5.30;;;;;;;;;;5070855;28;20135;-57
2022/06/23 03:15:08;;;;;;;16.85;6.18;;;;;;;;;;5069866;28;20286;-59
2022/06/23 03:17:33;;;;;;;12.73;5.72;;;;;;;;;;5071976;28;20081;-59
2022/06/23 03:20:03;;;;;;;15.52;6.28;;;;;;;;;;5070063;28;20037;-59
2022/06/23 03:22:46;;;;;;;18.73;8.13;;;;;;;;;;5070668;28;20024;-59
2022/06/23 03:25:18;;;;;;;19.85;7.07;;;;;;;;;;5073026;28;20418;-59
2022/06/23 03:28:03;;;;;;;12.38;5.82;;;;;;;;;;5068481;28;20108;-59
2022/06/23 03:30:53;;;;;;;19.95;6.47;;;;;;;;;;5072131;28;20016;-59
2022/06/23 03:33:27;;;;;;;21.83;7.22;;;;;;;;;;5066441;28;20094;-59
2022/06/23 03:35:59;;;;;;;16.92;7.10;;;;;;;;;;5071819;28;20472;-59
2022/06/23 03:41:37;;;;;;;15.20;6.45;;;;;;;;;;5070656;28;20036;-58
2022/06/23 03:44:16;;;;;;;19.00;6.57;;;;;;;;;;5064291;28;20469;-60
2022/06/23 03:46:58;;;;;;;;;;;;;;;;;;5063107;28;20024;-60
2022/06/23 03:49:41;;;;;;;15.00;6.40;;;;;;;;;;5065391;28;19908;-60
2022/06/23 03:52:33;;;;;;;11.98;6.47;;;;;;;;;;5068285;28;20085;-59
2022/06/23 03:55:22;;;;;;;16.10;6.97;;;;;;;;;;5072387;28;20036;-59
2022/06/23 03:58:29;;;;;;;21.35;7.18;;;;;;;;;;5066572;28;20058;-59
2022/06/23 04:01:13;;;;;;;22.27;7.90;;;;;;;;;;5050183;28;20045;-62
2022/06/23 04:04:32;;;;;;;14.63;6.75;;;;;;;;;;5064360;28;20024;-58
2022/06/23 04:06:58;;;;;;;16.50;6.28;;;;;;;;;;5022132;28;20144;-59
2022/06/23 04:09:24;;;;;;;18.33;7.70;;;;;;;;;;5023381;28;20025;-58
2022/06/23 04:12:05;;;;;;;22.83;8.13;;;;;;;;;;5045627;28;20043;-60
2022/06/23 04:14:33;;;;;;;16.88;6.78;;;;;;;;;;5065255;28;20052;-59
2022/06/23 04:17:20;;;;;;;14.00;6.40;;;;;;;;;;5067499;28;20063;-58
2022/06/23 04:20:12;;;;;;;15.10;6.50;;;;;;;;;;5067152;28;20446;-58
2022/06/23 04:22:59;;;;;;;15.05;5.97;;;;;;;;;;5061308;28;20037;-59
2022/06/23 04:25:34;;;;;;;16.77;6.05;;;;;;;;;;5064675;28;20086;-60
2022/06/23 04:28:01;;;;;;;13.88;6.50;;;;;;;;;;5066555;28;20028;-59
2022/06/23 04:30:29;;;;;;;18.92;6.05;;;;;;;;;;5063224;28;20029;-59
2022/06/23 04:32:58;;;;;;;17.67;6.68;;;;;;;;;;5069634;28;20452;-59
2022/06/23 04:35:37;;;;;;;14.52;5.65;;;;;;;;;;5070775;28;20123;-60
2022/06/23 04:38:15;;;;;;;14.23;5.93;;;;;;;;;;5065823;28;20029;-60
2022/06/23 04:40:41;;;;;;;10.20;5.03;;;;;;;;;;5067643;28;20107;-58
2022/06/23 04:43:22;;;;;;;13.48;5.65;;;;;;;;;;5068196;28;20123;-60
2022/06/23 04:45:51;;;;;;;16.48;5.40;;;;;;;;;;5073928;28;20028;-60
2022/06/23 04:48:42;;;;;;;11.70;5.97;;;;;;;;;;5066199;28;20028;-60
2022/06/23 04:51:23;;;;;;;13.00;6.22;;;;;;;;;;5039860;28;20047;-60
2022/06/23 04:53:53;;;;;;;11.98;5.53;;;;;;;;;;5065794;28;20028;-60
2022/06/23 04:56:31;;;;;;;14.48;6.05;;;;;;;;;;5062801;28;20497;-59
2022/06/23 04:59:02;;;;;;;12.40;5.47;;;;;;;;;;5062466;28;20052;-60
2022/06/23 05:01:37;;;;;;;13.73;5.30;;;;;;;;;;5065212;28;20024;-60
2022/06/23 05:04:11;;;;;;;14.25;5.20;;;;;;;;;;5056978;28;20036;-59
2022/06/23 05:06:40;;;;;;;11.50;5.60;;;;;;;;;;5063036;28;20100;-59
2022/06/23 05:09:27;;;;;;;13.98;5.43;;;;;;;;;;5068690;28;20028;-57
2022/06/23 05:12:04;;;;;;;16.45;5.25;;;;;;;;;;5060315;28;21785;-57
2022/06/23 05:14:38;;;;;;;11.23;5.15;;;;;;;;;;5057938;28;20081;-58
2022/06/23 05:17:13;;;;;;;15.20;5.47;;;;;;;;;;5066538;28;20047;-55
2022/06/23 05:19:41;;;;;;;14.52;4.90;;;;;;;;;;5061307;28;20094;-58
2022/06/23 05:22:31;;;;;;;10.45;4.97;;;;;;;;;;5061538;28;20086;-58
2022/06/23 05:25:06;;;;;;;12.23;5.07;;;;;;;;;;5066226;28;20028;-59
2022/06/23 05:27:34;;;;;;;11.70;5.55;;;;;;;;;;5064824;28;20610;-59
2022/06/23 05:30:18;;;;;;;13.93;6.18;;;;;;;;;;5064393;28;20024;-59
2022/06/23 05:32:50;;;;;;;13.25;5.47;;;;;;;;;;5062920;28;20032;-60
2022/06/23 05:35:34;;;;;;;11.25;5.20;;;;;;;;;;5055278;28;20048;-59
2022/06/23 05:38:06;;;;;;;9.18;4.55;;;;;;;;;;5062601;28;20054;-59
2022/06/23 05:40:34;;;;;;;14.73;4.78;;;;;;;;;;5059589;28;20055;-60
2022/06/23 05:43:02;;;;;;;9.15;4.90;;;;;;;;;;5061695;28;20103;-59
2022/06/23 05:45:37;;;;;;;13.68;5.55;;;;;;;;;;5062732;28;20021;-59
2022/06/23 05:48:05;;;;;;;12.75;4.65;;;;;;;;;;5067102;28;20446;-60
2022/06/23 05:50:40;;;;;;;12.80;4.55;;;;;;;;;;5062689;28;20100;-59
2022/06/23 05:53:15;;;;;;;10.45;4.35;;;;;;;;;;5059633;28;20086;-58
2022/06/23 05:55:44;;;;;;;8.20;4.15;;;;;;;;;;5066741;28;20099;-59
2022/06/23 05:58:24;;;;;;;10.63;4.60;;;;;;;;;;5061232;28;20028;-60
2022/06/23 06:00:59;;;;;;;21.48;5.93;;;;;;;;;;5059430;28;20130;-60
2022/06/23 06:03:39;;;;;;;14.50;6.10;;;;;;;;;;5060511;28;20130;-59
2022/06/23 06:06:06;;;;;;;8.70;5.25;;;;;;;;;;5058626;28;20115;-59
2022/06/23 06:09:35;;;;;;;10.90;4.45;;;;;;;;;;5066431;28;20021;-60
2022/06/23 06:11:25;;;;;;;9.70;5.50;;;;;;;;;;5067614;28;20038;-57
2022/06/23 06:13:51;;;;;;;9.68;5.05;;;;;;;;;;5070150;28;20032;-58
2022/06/23 06:16:17;;;;;;;8.80;4.50;;;;;;;;;;5068112;28;20024;-59
2022/06/23 06:18:44;;;;;;;9.85;4.20;;;;;;;;;;5063722;28;20217;-60
2022/06/23 06:21:16;;;;;;;12.70;4.82;;;;;;;;;;5069724;28;20115;-59
2022/06/23 06:23:51;;;;;;;9.23;4.57;;;;;;;;;;5067034;28;20098;-59
2022/06/23 06:26:20;;;;;;;12.77;5.85;;;;;;;;;;5066687;28;20431;-59
2022/06/23 06:28:46;;;;;;;11.93;4.80;;;;;;;;;;5063705;28;20039;-58
2022/06/23 06:31:32;;;;;;;10.75;4.70;;;;;;;;;;5062341;28;20059;-58
2022/06/23 06:34:13;;;;;;;15.43;5.20;;;;;;;;;;5063079;28;20363;-59
2022/06/23 06:36:44;;;;;;;11.57;5.60;;;;;;;;;;5061349;28;20036;-60
2022/06/23 06:39:16;;;;;;;13.15;4.97;;;;;;;;;;5063457;28;20039;-59
2022/06/23 06:41:46;;;;;;;7.72;4.78;;;;;;;;;;5064831;28;20059;-59
2022/06/23 06:44:12;;;;;;;12.70;4.40;;;;;;;;;;5059800;28;20306;-59
2022/06/23 06:46:39;;;;;;;10.95;4.15;;;;;;;;;;5065131;28;20016;-59
2022/06/23 06:49:09;;;;;;;6.70;3.97;;;;;;;;;;5064327;28;20031;-60
2022/06/23 06:51:34;;;;;;;9.68;4.22;;;;;;;;;;5065596;28;20033;-59
2022/06/23 06:54:16;;;;;;;18.00;5.60;;;;;;;;;;5055555;28;20025;-59
2022/06/23 06:57:02;;;;;;;10.48;4.30;;;;;;;;;;5063590;28;20035;-59
2022/06/23 06:59:27;;;;;;;10.15;4.47;;;;;;;;;;5063670;28;20078;-59
2022/06/23 07:02:17;;;;;;;8.90;4.10;;;;;;;;;;5062287;28;20032;-59
2022/06/23 07:04:51;;;;;;;8.90;3.83;;;;;;;;;;5054484;28;20039;-59
2022/06/23 07:07:23;;;;;;;13.65;4.50;;;;;;;;;;5057622;28;20041;-60
2022/06/23 07:09:49;;;;;;;12.20;4.60;;;;;;;;;;5064865;28;20488;-59
2022/06/23 07:12:29;;;;;;;11.40;4.05;;;;;;;;;;5070361;28;20051;-59
2022/06/23 07:15:07;;;;;;;12.07;4.35;;;;;;;;;;5066863;28;20029;-59
2022/06/23 07:17:43;;;;;;;11.57;5.63;;;;;;;;;;5067719;28;20029;-59
2022/06/23 07:20:21;;;;;;;10.05;5.60;;;;;;;;;;5065909;28;20483;-59
2022/06/23 07:22:55;;;;;;;15.88;4.88;;;;;;;;;;5063154;28;20433;-59
2022/06/23 07:25:28;;;;;;;9.43;4.57;;;;;;;;;;5067174;28;20017;-60
2022/06/23 07:27:57;;;;;;;10.52;4.50;;;;;;;;;;5064699;28;20090;-59
2022/06/23 07:30:33;;;;;;;13.32;4.55;;;;;;;;;;5063704;28;20027;-61
2022/06/23 07:33:15;;;;;;;12.13;4.85;;;;;;;;;;5059725;28;20029;-60
2022/06/23 07:35:53;;;;;;;15.25;5.25;;;;;;;;;;5063788;28;20025;-59
2022/06/23 07:38:26;;;;;;;12.38;5.55;;;;;;;;;;5065062;28;20143;-60
2022/06/23 07:41:01;;;;;;;11.27;5.22;;;;;;;;;;5060523;28;20086;-59
2022/06/23 07:43:37;;;;;;;8.98;3.97;;;;;;;;;;5064850;28;20037;-59
2022/06/23 07:46:03;;;;;;;15.07;5.03;;;;;;;;;;5061348;28;20107;-60
2022/06/23 07:48:32;;;;;;;15.70;4.72;;;;;;;;;;5058786;28;20112;-60
2022/06/23 07:50:58;;;;;;;10.90;4.80;;;;;;;;;;5058486;28;20098;-60
2022/06/23 07:53:28;;;;;;;11.50;4.47;;;;;;;;;;5057106;28;20062;-60
2022/06/23 07:55:53;;;;;;;11.30;4.10;;;;;;;;;;5059008;28;20035;-60
2022/06/23 07:58:23;;;;;;;12.18;4.20;;;;;;;;;;5058469;28;20393;-60
2022/06/23 08:00:53;;;;;;;7.07;3.90;;;;;;;;;;5062754;28;20404;-59
2022/06/23 08:03:29;;;;;;;6.28;3.13;;;;;;;;;;5062321;28;20020;-59
2022/06/23 08:05:59;;;;;;;16.20;3.80;;;;;;;;;;5065334;28;20063;-60
2022/06/23 08:08:28;;;;;;;17.63;3.70;;;;;;;;;;5067566;28;20040;-58
2022/06/23 08:13:46;;;;;;;18.10;4.45;;;;;;;;;;5067781;28;20671;-59
2022/06/23 08:19:31;;;;;;;16.73;4.30;;;;;;;;;;5059010;28;20051;-60
2022/06/23 08:22:20;;;;;;;18.08;4.47;;;;;;;;;;5061706;28;20052;-59
2022/06/23 08:24:48;;;;;;;9.43;3.58;;;;;;;;;;5061747;28;20028;-60
2022/06/23 08:27:18;;;;;;;11.93;4.07;;;;;;;;;;5061437;28;20052;-60
2022/06/23 08:29:55;;;;;;;20.67;6.00;;;;;;;;;;5063488;28;20033;-60
2022/06/23 08:32:21;;;;;;;14.40;3.72;;;;;;;;;;5065425;28;20028;-60
2022/06/23 08:35:07;;;;;;;17.02;4.22;;;;;;;;;;5066869;28;20043;-59
2022/06/23 08:38:06;;;;;;;12.00;3.92;;;;;;;;;;5061729;28;20035;-60
2022/06/23 08:40:47;;;;;;;12.82;3.33;;;;;;;;;;5058003;28;20545;-60
2022/06/23 08:43:33;;;;;;;14.82;5.75;;;;;;;;;;5059949;28;20125;-60
2022/06/23 08:46:36;;;;;;;12.93;4.03;;;;;;;;;;5057786;28;20514;-60
2022/06/23 08:49:02;;;;;;;13.25;3.65;;;;;;;;;;5055705;28;20108;-59
2022/06/23 08:51:37;;;;;;;11.68;3.50;;;;;;;;;;5054706;28;20119;-60
2022/06/23 08:54:26;;;;;;;12.32;3.85;;;;;;;;;;5053482;28;20042;-59
2022/06/23 08:57:13;;;;;;;12.63;3.92;;;;;;;;;;5061437;28;20783;-60
2022/06/23 09:00:08;;;;;;;12.65;3.70;;;;;;;;;;5056362;28;20041;-58
2022/06/23 09:02:56;;;;;;;9.25;3.38;;;;;;;;;;5038030;28;20043;-59
2022/06/23 09:05:42;;;;;;;10.07;3.78;;;;;;;;;;5059017;28;20032;-59
2022/06/23 09:08:23;;;;;;;15.45;4.85;;;;;;;;;;5059040;28;20043;-58
2022/06/23 09:11:04;;;;;;;15.48;4.70;;;;;;;;;;5064792;28;20032;-59
2022/06/23 09:13:35;;;;;;;10.65;4.22;;;;;;;;;;5066308;28;20399;-59
2022/06/23 09:16:08;;;;;;;15.68;4.30;;;;;;;;;;5063586;28;20086;-58
2022/06/23 09:18:39;;;;;;;11.02;4.15;;;;;;;;;;5062864;28;20148;-58
2022/06/23 09:21:35;;;;;;;11.25;3.97;;;;;;;;;;5064190;28;20028;-59
2022/06/23 09:24:29;;;;;;;15.98;4.85;;;;;;;;;;5064053;28;20032;-58
2022/06/23 09:26:58;;;;;;;11.25;4.53;;;;;;;;;;5062418;28;20031;-59
2022/06/23 09:29:39;;;;;;;;;;;;;;;;;;5062671;28;20438;-59
2022/06/23 09:32:12;;;;;;;11.63;4.65;;;;;;;;;;5064769;28;20018;-60
2022/06/23 09:35:21;;;;;;;14.45;5.10;;;;;;;;;;5062158;28;20036;-59
2022/06/23 09:37:58;;;;;;;13.93;5.90;;;;;;;;;;5060382;28;20097;-59
2022/06/23 09:40:39;;;;;;;18.40;6.00;;;;;;;;;;5058073;28;20033;-59
2022/06/23 09:43:04;;;;;;;14.65;6.18;;;;;;;;;;5059127;28;20033;-59
2022/06/23 09:45:36;;;;;;;12.93;5.28;;;;;;;;;;5057624;28;20143;-59
2022/06/23 09:48:23;;;;;;;15.80;5.68;;;;;;;;;;5063707;28;20122;-59
2022/06/23 09:51:09;;;;;;;18.13;5.75;;;;;;;;;;5057895;28;20035;-59
2022/06/23 09:53:53;;;;;;;16.92;5.78;;;;;;;;;;5063242;28;20040;-59
2022/06/23 09:56:43;;;;;;;14.60;6.00;;;;;;;;;;5056451;28;20514;-59
2022/06/23 09:59:41;;;;;;;12.68;5.40;;;;;;;;;;5063337;28;20070;-59
2022/06/23 10:02:22;;;;;;;;;;;;;;;;;;5059247;28;20029;-59
2022/06/23 10:05:12;;;;;;;15.13;4.57;;;;;;;;;;5059451;28;19920;-60
2022/06/23 10:07:57;;;;;;;13.32;5.28;;;;;;;;;;5055704;28;20016;-60
2022/06/23 10:10:49;;;;;;;12.38;4.97;;;;;;;;;;5063526;28;20032;-60
2022/06/23 10:13:43;;;;;;;14.13;5.15;;;;;;;;;;5062303;28;20054;-60
2022/06/23 10:16:37;;;;;;;13.35;5.07;;;;;;;;;;5060981;28;20024;-60
2022/06/23 10:19:18;;;;;;;13.63;5.90;;;;;;;;;;5063106;28;20142;-60
2022/06/23 10:22:09;;;;;;;18.27;5.82;;;;;;;;;;5063952;28;20483;-61
2022/06/23 10:24:44;;;;;;;16.02;5.40;;;;;;;;;;5065509;28;20049;-61
2022/06/23 10:27:28;;;;;;;15.95;5.18;;;;;;;;;;5062484;28;20040;-60
2022/06/23 10:30:01;;;;;;;11.43;4.85;;;;;;;;;;5062454;28;20061;-60
2022/06/23 10:32:41;;;;;;;13.02;5.97;;;;;;;;;;5065402;28;20033;-61
2022/06/23 10:35:28;;;;;;;16.00;5.97;;;;;;;;;;5067141;28;20565;-61
2022/06/23 10:38:11;;;;;;;17.17;6.15;;;;;;;;;;5065784;28;20102;-60
2022/06/23 10:40:54;;;;;;;18.88;5.53;;;;;;;;;;5061489;28;20105;-61
2022/06/23 10:43:53;;;;;;;13.90;5.40;;;;;;;;;;5063827;28;20103;-60
2022/06/23 10:46:32;;;;;;;15.15;5.53;;;;;;;;;;5065678;28;20017;-60
2022/06/23 10:49:00;;;;;;;15.45;5.53;;;;;;;;;;5061909;28;20082;-60
2022/06/23 10:51:44;;;;;;;14.73;5.53;;;;;;;;;;5055977;28;20039;-59
2022/06/23 10:54:31;;;;;;;13.48;5.28;;;;;;;;;;5058659;28;20036;-57
2022/06/23 10:57:31;;;;;;;18.02;5.40;;;;;;;;;;5059700;28;20400;-57
2022/06/23 11:00:15;;;;;;;24.45;6.07;;;;;;;;;;5054786;28;20447;-57
2022/06/23 11:03:01;;;;;;;14.50;5.25;;;;;;;;;;5066831;28;20425;-57
2022/06/23 11:05:26;;;;;;;15.45;4.97;;;;;;;;;;5042546;28;20353;-57
2022/06/23 11:08:11;;;;;;;14.80;5.13;;;;;;;;;;5071369;28;20032;-58
2022/06/23 11:10:39;;;;;;;16.05;4.63;;;;;;;;;;5066115;28;20047;-59
2022/06/23 11:13:17;;;;;;;;;;;;;;;;;;5067173;28;20020;-60
2022/06/23 11:16:13;;;;;;;12.77;4.85;;;;;;;;;;5068757;28;19916;-59
2022/06/23 11:18:56;;;;;;;20.77;5.22;;;;;;;;;;5064484;28;20349;-60
2022/06/23 11:21:48;;;;;;;11.57;4.32;;;;;;;;;;5063817;28;20093;-60
2022/06/23 11:24:23;;;;;;;15.60;4.05;;;;;;;;;;5066403;28;20024;-59
2022/06/23 11:27:08;;;;;;;17.50;3.72;;;;;;;;;;5064790;28;20094;-60
2022/06/23 11:29:51;;;;;;;13.77;3.55;;;;;;;;;;5063300;28;20394;-60
2022/06/23 11:32:44;;;;;;;12.60;3.08;;;;;;;;;;5064525;28;20032;-61
2022/06/23 11:35:32;;;;;;;12.85;2.70;;;;;;;;;;5062942;28;20087;-60
2022/06/23 11:38:00;;;;;;;11.88;3.22;;;;;;;;;;5068865;28;20122;-59
2022/06/23 11:40:50;;;;;;;13.77;3.00;;;;;;;;;;5055128;28;20033;-60
2022/06/23 11:43:23;;;;;;;12.95;3.00;;;;;;;;;;5064119;28;20028;-61
2022/06/23 11:45:59;;;;;;;14.38;2.90;;;;;;;;;;5065658;28;20020;-61
2022/06/23 11:48:43;;;;;;;10.95;2.70;;;;;;;;;;5057310;28;20025;-61
2022/06/23 11:51:17;;;;;;;10.43;2.90;;;;;;;;;;5052809;28;20049;-61
2022/06/23 11:53:57;;;;;;;10.13;2.63;;;;;;;;;;5054752;28;20023;-59
2022/06/23 11:57:02;;;;;;;9.75;2.22;;;;;;;;;;5054435;28;20028;-60
2022/06/23 11:59:45;;;;;;;16.58;2.83;;;;;;;;;;5050220;28;20131;-60
2022/06/23 12:02:11;;;;;;;16.55;2.80;;;;;;;;;;5063956;28;20036;-58
2022/06/23 12:04:55;;;;;;;13.35;2.70;;;;;;;;;;5064403;28;20055;-58
2022/06/23 12:07:35;;;;;;;12.38;2.95;;;;;;;;;;5070896;28;20025;-57
2022/06/23 12:10:13;;;;;;;12.02;2.85;;;;;;;;;;5067035;28;20131;-58
2022/06/23 12:12:41;;;;;;;9.05;2.70;;;;;;;;;;5065306;28;20488;-58
2022/06/23 12:15:09;;;;;;;10.68;2.75;;;;;;;;;;5065793;28;20024;-59
2022/06/23 12:17:39;;;;;;;12.82;3.22;;;;;;;;;;5064423;28;20052;-58
2022/06/23 12:20:04;;;;;;;11.95;3.00;;;;;;;;;;5065283;28;20115;-57
2022/06/23 12:22:30;;;;;;;8.95;2.70;;;;;;;;;;5062273;28;20129;-58
2022/06/23 12:25:32;;;;;;;10.77;3.83;;;;;;;;;;5065444;28;20032;-58
2022/06/23 12:28:23;;;;;;;10.75;3.35;;;;;;;;;;5059821;28;20070;-59
2022/06/23 12:31:00;;;;;;;14.18;3.58;;;;;;;;;;5064616;28;20036;-59
2022/06/23 12:33:45;;;;;;;11.48;2.55;;;;;;;;;;5062715;28;20033;-58
2022/06/23 12:36:44;;;;;;;12.32;2.97;;;;;;;;;;5057546;28;20087;-57
2022/06/23 12:39:17;;;;;;;10.70;2.88;;;;;;;;;;5054011;28;20039;-57
2022/06/23 12:41:50;;;;;;;13.95;3.38;;;;;;;;;;5063318;28;20028;-58
2022/06/23 12:44:46;;;;;;;14.75;3.40;;;;;;;;;;5063822;28;20047;-58
2022/06/23 12:47:28;;;;;;;13.45;2.58;;;;;;;;;;5064036;28;20511;-58
2022/06/23 12:50:18;;;;;;;8.93;2.63;;;;;;;;;;5059945;28;20040;-59
2022/06/23 12:52:46;;;;;;;11.40;3.15;;;;;;;;;;5061631;28;20028;-59
2022/06/23 12:55:55;;;;;;;10.68;2.92;;;;;;;;;;5056653;28;20029;-58
2022/06/23 12:58:28;;;;;;;9.90;2.42;;;;;;;;;;5026750;28;20120;-58
2022/06/23 13:00:58;;;;;;;8.20;2.10;;;;;;;;;;5058639;28;20041;-57
2022/06/23 13:03:59;;;;;;;12.43;3.15;;;;;;;;;;5058519;28;20021;-58
2022/06/23 13:06:42;;;;;;;10.52;2.40;;;;;;;;;;5068426;28;20028;-60
2022/06/23 13:09:29;;;;;;;11.10;2.50;;;;;;;;;;5064001;28;20052;-61
2022/06/23 13:12:11;;;;;;;9.02;2.22;;;;;;;;;;5061336;28;20508;-61
2022/06/23 13:14:56;;;;;;;9.35;2.53;;;;;;;;;;5062596;28;20040;-60
2022/06/23 13:17:43;;;;;;;13.02;2.80;;;;;;;;;;5061979;28;20472;-60
2022/06/23 13:20:19;;;;;;;13.02;2.80;;;;;;;;;;5066698;28;20134;-60
2022/06/23 13:23:07;;;;;;;12.88;2.53;;;;;;;;;;5061326;28;21218;-60
2022/06/23 13:25:36;;;;;;;10.63;2.53;;;;;;;;;;5060456;28;20473;-59
2022/06/23 13:28:04;;;;;;;11.15;3.15;;;;;;;;;;5063706;28;20024;-60
2022/06/23 13:30:38;;;;;;;10.05;2.45;;;;;;;;;;5060367;28;20522;-62
2022/06/23 13:33:13;;;;;;;6.70;2.10;;;;;;;;;;5058978;28;20032;-60
2022/06/23 13:35:42;;;;;;;10.63;2.15;;;;;;;;;;5058417;28;20047;-61
2022/06/23 13:38:58;;;;;;;10.77;2.20;;;;;;;;;;5061995;28;20135;-61
2022/06/23 13:41:32;;;;;;;10.98;2.92;;;;;;;;;;5040540;28;20040;-60
2022/06/23 13:44:09;;;;;;;15.52;3.28;;;;;;;;;;5051820;28;20043;-60
2022/06/23 13:46:39;;;;;;;14.13;2.92;;;;;;;;;;5052228;28;20021;-62
2022/06/23 13:49:19;;;;;;;10.23;3.55;;;;;;;;;;5054678;28;20076;-60
2022/06/23 13:52:08;;;;;;;11.90;2.65;;;;;;;;;;5051868;28;20028;-61
2022/06/23 13:54:51;;;;;;;11.98;2.80;;;;;;;;;;5054785;28;20055;-61
2022/06/23 13:57:46;;;;;;;11.43;3.00;;;;;;;;;;5055967;28;20051;-60
2022/06/23 14:00:20;;;;;;;10.73;3.10;;;;;;;;;;5051911;28;20492;-60
2022/06/23 14:03:14;;;;;;;10.80;3.17;;;;;;;;;;5053186;28;20074;-61
2022/06/23 14:05:41;;;;;;;14.70;3.33;;;;;;;;;;5066416;28;20185;-62
2022/06/23 14:08:37;;;;;;;11.77;2.88;;;;;;;;;;5071261;28;20027;-61
2022/06/23 14:11:05;;;;;;;11.38;2.90;;;;;;;;;;5063837;28;20056;-59
2022/06/23 14:13:40;;;;;;;10.70;2.60;;;;;;;;;;5068269;28;20024;-61
2022/06/23 14:16:36;;;;;;;9.32;2.33;;;;;;;;;;5070267;28;20036;-62
2022/06/23 14:19:24;;;;;;;15.73;2.92;;;;;;;;;;5070165;28;20032;-61
2022/06/23 14:22:15;;;;;;;13.73;2.70;;;;;;;;;;5069845;28;20024;-62
2022/06/23 14:25:06;;;;;;;9.10;2.67;;;;;;;;;;5063693;28;20104;-60
2022/06/23 14:27:47;;;;;;;27.60;5.05;;;;;;;;;;5065800;28;20028;-61
2022/06/23 14:30:21;;;;;;;23.33;3.95;;;;;;;;;;5068258;28;20389;-60
2022/06/23 14:33:00;;;;;;;12.82;3.53;;;;;;;;;;5068326;28;20024;-60
2022/06/23 14:35:44;;;;;;;12.57;2.80;;;;;;;;;;5064978;28;20365;-60
2022/06/23 14:38:20;;;;;;;13.40;3.25;;;;;;;;;;5061991;28;20056;-61
2022/06/23 14:41:05;;;;;;;21.52;3.33;;;;;;;;;;5067742;28;20561;-61
2022/06/23 14:44:05;;;;;;;38.38;5.18;;;;;;;;;;5061112;28;20040;-62
2022/06/23 14:46:53;;;;;;;24.25;3.45;;;;;;;;;;5059595;28;20025;-61
2022/06/23 14:50:06;;;;;;;26.08;3.55;;;;;;;;;;5059449;28;20353;-62
2022/06/23 14:52:38;;;;;;;11.43;2.50;;;;;;;;;;5026659;28;20151;-61
2022/06/23 14:55:12;;;;;;;15.35;3.20;;;;;;;;;;5051374;28;20028;-61
2022/06/23 14:57:50;;;;;;;15.18;2.80;;;;;;;;;;5061204;28;20386;-60
2022/06/23 15:00:25;;;;;;;12.27;2.55;;;;;;;;;;5068633;28;20040;-62
2022/06/23 15:03:12;;;;;;;11.82;2.28;;;;;;;;;;5068721;28;20407;-60
2022/06/23 15:05:44;;;;;;;13.45;2.95;;;;;;;;;;5066812;28;20419;-59
2022/06/23 15:08:24;;;;;;;20.88;3.75;;;;;;;;;;5063463;28;20109;-59
2022/06/23 15:11:17;;;;;;;15.27;3.00;;;;;;;;;;5066701;28;20058;-61
2022/06/23 15:13:46;;;;;;;15.75;2.83;;;;;;;;;;5064901;28;20031;-59
2022/06/23 15:16:36;;;;;;;14.38;3.15;;;;;;;;;;5057127;28;20036;-60
2022/06/23 15:19:07;;;;;;;17.20;3.45;;;;;;;;;;5057190;28;20060;-60
2022/06/23 15:25:10;;;;;;;13.82;2.90;;;;;;;;;;5060189;28;20071;-60
2022/06/23 15:28:05;;;;;;;12.80;2.88;;;;;;;;;;5063302;28;20157;-60
2022/06/23 15:30:53;;;;;;;13.18;2.78;;;;;;;;;;5062029;28;20039;-60
2022/06/23 15:33:46;;;;;;;14.82;2.42;;;;;;;;;;5056440;28;20368;-61
2022/06/23 15:36:30;;;;;;;14.95;2.30;;;;;;;;;;5056907;28;20025;-61
2022/06/23 15:39:08;;;;;;;14.73;2.95;;;;;;;;;;5054383;28;20024;-59
2022/06/23 15:41:43;;;;;;;;;;;;;;;;;;5067123;28;20029;-59
2022/06/23 15:44:08;;;;;;;10.50;2.08;;;;;;;;;;5057442;28;19919;-59
2022/06/23 15:46:47;;;;;;;9.80;2.17;;;;;;;;;;5053991;28;20028;-60
2022/06/23 15:49:47;;;;;;;15.30;2.25;;;;;;;;;;5059544;28;20156;-60
2022/06/23 15:52:26;;;;;;;18.75;2.17;;;;;;;;;;5062002;28;20186;-59
2022/06/23 15:54:57;;;;;;;11.15;2.38;;;;;;;;;;5056414;28;20029;-60
2022/06/23 15:57:30;;;;;;;8.98;1.98;;;;;;;;;;5060690;28;20115;-59
2022/06/23 16:00:24;;;;;;;13.07;2.35;;;;;;;;;;5058543;28;20454;-59